createdAt,value
2023-03-26T00:00:21.607Z,0.90
2023-03-26T00:04:25.485Z,1.30
2023-03-26T00:08:27.273Z,1.00
2023-03-26T00:12:29.069Z,0.93
2023-03-26T00:16:31.609Z,0.60
2023-03-26T00:20:33.414Z,0.73
2023-03-26T00:24:37.545Z,0.90
2023-03-26T00:28:40.845Z,1.03
2023-03-26T00:32:53.652Z,0.87
2023-03-26T00:36:55.934Z,0.97
2023-03-26T00:41:05.957Z,1.13
2023-03-26T00:45:08.334Z,1.07
2023-03-26T00:49:11.066Z,1.30
2023-03-26T00:53:13.940Z,0.90
2023-03-26T00:57:25.634Z,0.60
2023-03-26T01:01:32.530Z,0.90
2023-03-26T01:05:34.417Z,0.83
2023-03-26T01:09:43.056Z,1.50
2023-03-26T01:13:54.609Z,0.77
2023-03-26T01:17:59.669Z,0.70
2023-03-26T01:22:01.862Z,0.70
2023-03-26T01:26:44.112Z,0.87
2023-03-26T01:31:29.911Z,0.90
2023-03-26T01:35:52.116Z,0.80
2023-03-26T01:40:07.100Z,0.40
2023-03-26T01:44:32.141Z,1.00
2023-03-26T01:48:40.479Z,0.60
2023-03-26T01:52:42.322Z,0.67
2023-03-26T01:57:06.004Z,0.60
2023-03-26T02:01:45.078Z,0.60
2023-03-26T02:05:57.973Z,0.60
2023-03-26T02:10:30.357Z,0.60
2023-03-26T02:14:45.360Z,0.57
2023-03-26T02:18:51.279Z,0.83
2023-03-26T02:22:59.368Z,0.60
2023-03-26T02:27:05.390Z,0.50
2023-03-26T02:31:09.775Z,0.70
2023-03-26T02:35:12.899Z,0.87
2023-03-26T02:39:14.874Z,0.70
2023-03-26T02:43:17.017Z,0.60
2023-03-26T02:47:19.113Z,0.50
2023-03-26T02:51:21.179Z,0.57
2023-03-26T02:55:22.959Z,0.50
2023-03-26T02:59:24.702Z,0.60
2023-03-26T03:03:27.187Z,0.63
2023-03-26T03:07:29.186Z,0.57
2023-03-26T03:11:33.485Z,0.73
2023-03-26T03:15:35.709Z,0.70
2023-03-26T03:19:37.876Z,0.50
2023-03-26T03:23:39.604Z,0.70
2023-03-26T03:27:42.880Z,1.00
2023-03-26T03:31:45.753Z,0.90
2023-03-26T03:35:51.952Z,0.70
2023-03-26T03:39:53.909Z,0.87
2023-03-26T03:43:55.731Z,1.00
2023-03-26T03:47:57.568Z,0.70
2023-03-26T03:51:59.404Z,0.70
2023-03-26T03:56:02.115Z,0.77
2023-03-26T04:00:06.299Z,0.80
2023-03-26T04:04:09.449Z,0.80
2023-03-26T04:08:11.420Z,0.83
2023-03-26T04:12:13.321Z,0.90
2023-03-26T04:16:15.379Z,0.73
2023-03-26T04:20:17.994Z,0.90
2023-03-26T04:24:22.408Z,0.70
2023-03-26T04:28:46.558Z,1.10
2023-03-26T04:32:49.199Z,0.70
2023-03-26T04:36:54.677Z,0.70
2023-03-26T04:41:00.850Z,0.60
2023-03-26T04:45:07.157Z,0.70
2023-03-26T04:49:09.220Z,0.70
2023-03-26T04:53:21.380Z,0.77
2023-03-26T04:57:29.554Z,0.70
2023-03-26T05:01:32.273Z,0.83
2023-03-26T05:05:34.114Z,0.93
2023-03-26T05:09:36.605Z,0.90
2023-03-26T05:13:38.866Z,0.53
2023-03-26T05:17:42.631Z,0.90
2023-03-26T05:21:44.587Z,0.90
2023-03-26T05:25:47.172Z,0.90
2023-03-26T05:29:49.111Z,0.80
2023-03-26T05:33:51.148Z,1.00
2023-03-26T05:37:53.112Z,0.90
2023-03-26T05:41:55.013Z,1.17
2023-03-26T05:45:57.155Z,1.03
2023-03-26T05:49:59.304Z,1.30
2023-03-26T05:54:01.202Z,1.00
2023-03-26T05:58:03.413Z,0.93
2023-03-26T06:02:05.211Z,1.27
2023-03-26T06:06:17.717Z,1.20
2023-03-26T06:10:19.699Z,1.40
2023-03-26T06:14:21.681Z,1.37
2023-03-26T06:18:24.259Z,1.30
2023-03-26T06:22:26.475Z,1.30
2023-03-26T06:26:28.381Z,0.87
2023-03-26T06:30:30.471Z,1.10
2023-03-26T06:34:33.046Z,0.87
2023-03-26T06:38:35.010Z,1.17
2023-03-26T06:43:10.162Z,0.90
2023-03-26T06:46:58.869Z,1.10
2023-03-26T06:51:03.405Z,1.40
2023-03-26T06:55:08.724Z,1.03
2023-03-26T06:59:10.529Z,1.20
2023-03-26T07:03:12.516Z,1.20
2023-03-26T07:07:14.452Z,1.07
2023-03-26T07:11:17.120Z,1.30
2023-03-26T07:15:22.560Z,1.10
2023-03-26T07:19:24.868Z,1.23
2023-03-26T07:23:27.395Z,1.30
2023-03-26T07:28:12.389Z,1.57
2023-03-26T07:32:19.363Z,1.30
2023-03-26T07:36:34.326Z,1.37
2023-03-26T07:41:23.052Z,1.30
2023-03-26T07:45:44.047Z,1.13
2023-03-26T07:49:46.516Z,1.20
2023-03-26T07:53:49.776Z,1.10
2023-03-26T07:58:36.590Z,1.17
2023-03-26T08:03:16.082Z,1.30
2023-03-26T08:07:53.797Z,1.30
2023-03-26T08:12:10.842Z,1.37
2023-03-26T08:16:26.836Z,1.13
2023-03-26T08:20:38.441Z,1.30
2023-03-26T08:25:25.533Z,1.23
2023-03-26T08:29:45.411Z,1.30
2023-03-26T08:33:47.776Z,1.50
2023-03-26T08:37:49.730Z,1.63
2023-03-26T08:42:17.286Z,1.50
2023-03-26T08:46:48.985Z,1.40
2023-03-26T08:51:09.915Z,1.40
2023-03-26T08:55:40.655Z,1.47
2023-03-26T09:00:06.020Z,1.40
2023-03-26T09:04:49.899Z,1.57
2023-03-26T09:09:18.834Z,1.47
2023-03-26T09:13:31.612Z,1.10
2023-03-26T09:18:37.048Z,1.40
2023-03-26T09:23:07.977Z,1.53
2023-03-26T09:27:31.336Z,1.40
2023-03-26T09:32:27.198Z,1.17
2023-03-26T09:37:08.111Z,1.40
2023-03-26T09:41:50.931Z,1.27
2023-03-26T09:46:19.394Z,1.27
2023-03-26T09:50:32.917Z,1.37
2023-03-26T09:54:48.455Z,1.27
2023-03-26T09:59:48.029Z,1.30
2023-03-26T10:04:47.193Z,1.33
2023-03-26T10:09:14.158Z,1.77
2023-03-26T10:13:31.119Z,1.47
2023-03-26T10:18:27.136Z,1.30
2023-03-26T10:23:12.065Z,1.47
2023-03-26T10:27:54.507Z,1.27
2023-03-26T10:32:30.346Z,1.30
2023-03-26T10:36:36.975Z,1.40
2023-03-26T10:41:06.855Z,1.40
2023-03-26T10:45:20.885Z,1.23
2023-03-26T10:49:53.669Z,1.20
2023-03-26T10:54:36.113Z,1.23
2023-03-26T10:58:48.531Z,1.00
2023-03-26T11:03:11.872Z,1.27
2023-03-26T11:07:34.849Z,1.37
2023-03-26T11:12:02.956Z,1.13
2023-03-26T11:16:59.559Z,0.87
2023-03-26T11:21:44.328Z,1.30
2023-03-26T11:26:09.134Z,1.00
2023-03-26T11:30:47.530Z,1.03
2023-03-26T11:35:00.135Z,1.10
2023-03-26T11:39:04.781Z,0.90
2023-03-26T11:43:10.764Z,1.20
2023-03-26T11:47:15.129Z,1.00
2023-03-26T11:51:33.281Z,1.10
2023-03-26T11:55:35.629Z,1.20
2023-03-26T11:59:56.502Z,1.10
2023-03-26T12:04:13.687Z,1.33
2023-03-26T12:08:22.620Z,1.17
2023-03-26T12:12:33.566Z,1.23
2023-03-26T12:16:36.278Z,0.90
2023-03-26T12:20:39.024Z,0.90
2023-03-26T12:24:57.330Z,0.90
2023-03-26T12:29:14.646Z,1.00
2023-03-26T12:33:26.226Z,0.70
2023-03-26T12:37:38.794Z,1.27
2023-03-26T12:44:44.261Z,1.00
2023-03-26T12:47:54.819Z,1.10
2023-03-26T12:50:38.180Z,1.20
2023-03-26T12:55:18.905Z,1.30
2023-03-26T12:59:41.890Z,1.07
2023-03-26T13:04:03.483Z,1.00
2023-03-26T13:08:39.709Z,1.17
2023-03-26T13:13:02.364Z,1.00
2023-03-26T13:17:23.051Z,0.97
2023-03-26T13:22:08.313Z,1.20
2023-03-26T13:26:24.726Z,1.00
2023-03-26T13:31:13.839Z,0.90
2023-03-26T13:36:23.746Z,1.00
2023-03-26T13:40:59.298Z,0.80
2023-03-26T13:45:22.713Z,1.00
2023-03-26T13:49:44.990Z,1.30
2023-03-26T13:54:12.371Z,1.07
2023-03-26T13:58:34.251Z,1.10
2023-03-26T14:02:40.989Z,1.00
2023-03-26T14:07:00.399Z,0.80
2023-03-26T14:11:38.114Z,0.80
2023-03-26T14:16:04.354Z,1.10
2023-03-26T14:20:48.888Z,1.00
2023-03-26T14:25:32.834Z,1.00
2023-03-26T14:29:56.681Z,0.80
2023-03-26T14:34:30.373Z,0.90
2023-03-26T14:39:00.603Z,1.00
2023-03-26T14:43:46.627Z,0.97
2023-03-26T14:48:29.466Z,1.03
2023-03-26T14:52:53.114Z,1.00
2023-03-26T14:57:49.851Z,0.80
2023-03-26T15:02:55.980Z,0.90
2023-03-26T15:07:19.929Z,1.23
2023-03-26T15:11:52.297Z,1.00
2023-03-26T15:16:17.860Z,1.30
2023-03-26T15:20:50.436Z,0.90
2023-03-26T15:25:48.003Z,0.90
2023-03-26T15:30:30.572Z,0.93
2023-03-26T15:35:00.615Z,0.80
2023-03-26T15:39:21.085Z,0.87
2023-03-26T15:43:23.143Z,0.83
2023-03-26T15:47:40.402Z,0.80
2023-03-26T15:52:19.278Z,0.90
2023-03-26T15:56:58.709Z,1.10
2023-03-26T16:01:36.703Z,0.90
2023-03-26T16:06:15.962Z,0.90
2023-03-26T16:10:35.042Z,1.03
2023-03-26T16:14:49.241Z,1.10
2023-03-26T16:19:00.854Z,1.27
2023-03-26T16:23:07.219Z,1.40
2023-03-26T16:27:15.657Z,1.20
2023-03-26T16:31:37.229Z,1.50
2023-03-26T16:36:18.587Z,1.33
2023-03-26T16:40:28.668Z,1.40
2023-03-26T16:45:08.571Z,1.23
2023-03-26T16:49:21.742Z,1.20
2023-03-26T16:53:41.868Z,1.00
2023-03-26T16:58:42.541Z,1.60
2023-03-26T22:49:32.982Z,1.10
2023-03-26T22:53:34.996Z,1.20
2023-03-26T22:57:37.271Z,1.13
2023-03-26T23:01:41.386Z,1.27
2023-03-26T23:05:43.276Z,1.20
2023-03-26T23:09:45.721Z,1.43
2023-03-26T23:13:47.974Z,2.03
2023-03-26T23:17:54.559Z,1.57
2023-03-26T23:21:57.556Z,1.77
2023-03-26T23:26:01.946Z,1.80
2023-03-26T23:30:04.852Z,1.77
2023-03-26T23:34:06.768Z,2.10
2023-03-26T23:38:08.712Z,2.33
2023-03-26T23:42:11.629Z,2.73
2023-03-26T23:46:15.561Z,2.90
2023-03-26T23:50:18.099Z,2.73
2023-03-26T23:54:21.607Z,1.80
2023-03-26T23:58:24.654Z,2.13
